Time;durP1;ratioP1;P1;durP2;ratioP2;P2;SDS_P1;SDS_P2;PMS_P1;PMS_P2;Temp;Humidity;BMP_temperature;BMP_pressure;BME280_temperature;BME280_humidity;BME280_pressure;Samples;Min_cycle;Max_cycle;Signal;HPM_P1;HPM_P2
2020/12/31 00:02:16;;;;;;;26.10;17.23;;;2.60;99.90;;;;;;5023879;28;20455;-70
2020/12/31 00:04:42;;;;;;;15.38;10.77;;;2.70;99.90;;;;;;5022282;28;20061;-70
2020/12/31 00:07:10;;;;;;;20.27;12.95;;;2.70;99.90;;;;;;5014454;28;20097;-71
2020/12/31 00:09:36;;;;;;;18.23;12.52;;;2.60;99.90;;;;;;5054170;28;20115;-71
2020/12/31 00:12:07;;;;;;;15.20;10.30;;;2.70;99.90;;;;;;5040067;28;20037;-70
2020/12/31 00:14:35;;;;;;;13.98;9.35;;;2.70;99.90;;;;;;5019476;28;20034;-70
2020/12/31 00:17:01;;;;;;;20.70;14.18;;;2.70;99.90;;;;;;5023592;28;20053;-70
2020/12/31 00:19:30;;;;;;;16.52;11.93;;;2.70;99.90;;;;;;5054918;28;20036;-70
2020/12/31 00:21:56;;;;;;;17.25;11.20;;;2.70;99.90;;;;;;5005073;28;20129;-71
2020/12/31 00:24:24;;;;;;;18.05;12.05;;;2.70;99.90;;;;;;5024210;28;20129;-71
2020/12/31 00:26:49;;;;;;;17.75;11.05;;;2.70;99.90;;;;;;5023279;28;20025;-70
2020/12/31 00:29:15;;;;;;;19.48;11.77;;;2.70;99.90;;;;;;5022341;28;20434;-70
2020/12/31 00:31:41;;;;;;;18.00;12.55;;;2.70;99.90;;;;;;5020026;28;20026;-70
2020/12/31 00:34:06;;;;;;;17.17;11.18;;;2.70;99.90;;;;;;5055055;28;20099;-71
2020/12/31 00:36:33;;;;;;;17.00;11.48;;;2.70;99.90;;;;;;4692251;28;10000513;-71
2020/12/31 00:39:01;;;;;;;18.45;12.63;;;2.70;99.90;;;;;;5027546;28;20033;-70
2020/12/31 00:41:26;;;;;;;20.38;13.50;;;2.80;99.90;;;;;;5057782;28;20053;-70
2020/12/31 00:43:52;;;;;;;19.13;12.13;;;2.70;99.90;;;;;;5022876;28;21935;-71
2020/12/31 00:46:18;;;;;;;20.33;13.57;;;2.70;99.90;;;;;;5023746;28;20470;-71
2020/12/31 00:48:43;;;;;;;24.23;15.35;;;2.70;99.90;;;;;;5021961;28;20386;-72
2020/12/31 00:51:09;;;;;;;20.95;13.85;;;2.80;99.90;;;;;;5025181;28;20026;-71
2020/12/31 00:53:37;;;;;;;20.38;13.50;;;2.80;99.90;;;;;;5020764;28;20089;-71
2020/12/31 00:56:03;;;;;;;22.50;14.48;;;2.80;99.90;;;;;;5017920;28;20025;-71
2020/12/31 00:58:31;;;;;;;20.17;13.32;;;2.80;99.90;;;;;;5055713;28;20056;-71
2020/12/31 01:00:58;;;;;;;22.45;15.05;;;2.80;99.90;;;;;;5020803;28;20037;-71
2020/12/31 01:03:26;;;;;;;20.65;13.80;;;2.80;99.90;;;;;;5039695;28;20113;-71
2020/12/31 01:05:52;;;;;;;23.00;16.27;;;2.80;99.90;;;;;;5026072;28;20030;-71
2020/12/31 01:08:18;;;;;;;23.55;15.57;;;2.80;99.90;;;;;;5023216;28;20167;-71
2020/12/31 01:10:44;;;;;;;25.48;15.60;;;2.80;99.90;;;;;;5026130;28;20112;-71
2020/12/31 01:13:12;;;;;;;32.72;18.70;;;2.80;99.90;;;;;;5042713;28;20040;-71
2020/12/31 01:15:38;;;;;;;30.05;17.80;;;2.70;99.90;;;;;;5057602;28;20065;-71
2020/12/31 01:18:04;;;;;;;25.10;15.93;;;2.70;99.90;;;;;;5026023;28;20083;-71
2020/12/31 01:20:32;;;;;;;28.30;17.20;;;2.70;99.90;;;;;;5028147;28;20080;-71
2020/12/31 01:23:02;;;;;;;27.75;16.58;;;2.70;99.90;;;;;;5026997;28;20032;-71
2020/12/31 01:25:27;;;;;;;25.90;16.40;;;2.70;99.90;;;;;;5029042;28;20034;-71
2020/12/31 01:27:53;;;;;;;27.02;16.27;;;2.80;99.90;;;;;;5024410;28;20041;-71
2020/12/31 01:30:19;;;;;;;26.92;16.70;;;2.80;99.90;;;;;;5026299;28;20179;-71
2020/12/31 01:32:46;;;;;;;24.02;15.75;;;2.80;99.90;;;;;;5026581;28;20029;-70
2020/12/31 01:35:17;;;;;;;29.38;17.23;;;2.80;99.90;;;;;;5040025;28;20053;-71
2020/12/31 01:37:43;;;;;;;26.55;16.50;;;2.80;99.90;;;;;;5023691;28;20082;-71
2020/12/31 01:40:09;;;;;;;31.42;17.30;;;2.80;99.90;;;;;;5024705;28;20041;-71
2020/12/31 01:42:37;;;;;;;31.10;17.40;;;2.80;99.90;;;;;;5025417;28;20105;-71
2020/12/31 01:45:02;;;;;;;32.83;17.63;;;2.80;99.90;;;;;;5025087;28;20171;-71
2020/12/31 01:47:28;;;;;;;29.90;17.85;;;2.80;99.90;;;;;;5025613;28;20076;-71
2020/12/31 01:49:54;;;;;;;25.27;14.82;;;2.80;99.90;;;;;;5057225;28;20041;-71
2020/12/31 01:52:22;;;;;;;27.60;16.40;;;2.80;99.90;;;;;;5054401;28;20029;-71
2020/12/31 01:54:48;;;;;;;25.88;16.25;;;2.90;99.90;;;;;;5057417;28;20048;-71
2020/12/31 01:57:18;;;;;;;27.85;16.98;;;2.90;99.90;;;;;;5025815;28;20026;-71
2020/12/31 01:59:46;;;;;;;31.50;18.35;;;2.90;99.90;;;;;;5026185;28;20578;-71
2020/12/31 02:02:14;;;;;;;27.92;16.55;;;2.90;99.90;;;;;;5025984;28;20167;-71
2020/12/31 02:04:42;;;;;;;26.90;16.33;;;2.90;99.90;;;;;;5025911;28;20037;-71
2020/12/31 02:07:08;;;;;;;32.47;18.25;;;2.90;99.90;;;;;;5007402;28;20052;-71
2020/12/31 02:09:34;;;;;;;29.20;16.33;;;2.90;99.90;;;;;;5024413;28;20030;-71
2020/12/31 02:12:03;;;;;;;29.55;17.02;;;2.80;99.90;;;;;;5026251;28;20036;-71
2020/12/31 02:14:29;;;;;;;29.52;17.17;;;2.80;99.90;;;;;;5025666;28;20021;-71
2020/12/31 02:16:54;;;;;;;38.40;19.27;;;2.80;99.90;;;;;;5025708;28;20059;-71
2020/12/31 02:19:20;;;;;;;24.02;14.65;;;2.80;99.90;;;;;;5020340;28;20025;-71
2020/12/31 02:21:49;;;;;;;34.58;18.13;;;2.80;99.90;;;;;;5024308;28;20037;-71
2020/12/31 02:24:20;;;;;;;28.08;15.90;;;2.80;99.90;;;;;;5039595;28;20530;-71
2020/12/31 02:26:47;;;;;;;28.38;16.25;;;2.80;99.90;;;;;;5024211;28;20525;-71
2020/12/31 02:29:13;;;;;;;27.05;15.88;;;2.80;99.90;;;;;;5056331;28;20083;-71
2020/12/31 02:31:39;;;;;;;27.95;15.60;;;2.80;99.90;;;;;;5021268;28;20121;-72
2020/12/31 02:34:05;;;;;;;26.92;14.88;;;2.80;99.90;;;;;;5025130;28;20120;-70
2020/12/31 02:36:32;;;;;;;30.20;16.25;;;2.80;99.90;;;;;;5025644;28;20490;-71
2020/12/31 02:38:59;;;;;;;29.45;15.98;;;2.80;99.90;;;;;;5024378;28;20029;-71
2020/12/31 02:41:24;;;;;;;31.55;16.77;;;2.80;99.90;;;;;;5026559;28;20045;-71
2020/12/31 02:43:50;;;;;;;29.88;15.85;;;2.80;99.90;;;;;;5057379;28;20115;-70
2020/12/31 02:46:20;;;;;;;28.70;15.88;;;2.80;99.90;;;;;;5057426;28;20099;-71
2020/12/31 02:48:45;;;;;;;24.48;15.35;;;2.80;99.90;;;;;;5037703;28;20036;-70
2020/12/31 02:51:13;;;;;;;26.63;15.32;;;2.80;99.90;;;;;;5025197;28;20029;-71
2020/12/31 02:53:39;;;;;;;29.27;17.27;;;2.80;99.90;;;;;;5022936;28;20457;-71
2020/12/31 02:56:13;;;;;;;27.20;16.27;;;2.80;99.90;;;;;;5023425;28;20044;-71
2020/12/31 02:58:38;;;;;;;26.27;15.70;;;2.80;99.90;;;;;;5025985;28;20022;-71
2020/12/31 03:01:05;;;;;;;29.52;17.10;;;2.80;99.90;;;;;;5024212;28;20056;-71
2020/12/31 03:03:35;;;;;;;25.15;13.80;;;2.80;99.90;;;;;;5043153;28;20351;-71
2020/12/31 03:06:06;;;;;;;22.35;13.80;;;2.80;99.90;;;;;;5056197;28;20030;-70
2020/12/31 03:08:34;;;;;;;25.58;15.30;;;2.80;99.90;;;;;;5050675;28;20029;-71
2020/12/31 03:11:02;;;;;;;27.48;15.15;;;2.80;99.90;;;;;;5025485;28;20048;-71
2020/12/31 03:13:29;;;;;;;27.17;16.38;;;2.90;99.90;;;;;;5035568;28;20067;-70
2020/12/31 03:15:56;;;;;;;29.33;16.02;;;2.90;99.90;;;;;;5024799;28;20536;-71
2020/12/31 03:18:22;;;;;;;27.42;15.75;;;2.80;99.90;;;;;;5042177;28;20045;-70
2020/12/31 03:20:50;;;;;;;25.38;15.00;;;2.90;99.90;;;;;;5007155;28;20017;-70
2020/12/31 03:23:23;;;;;;;26.02;15.93;;;2.90;99.90;;;;;;5022445;28;21360;-71
2020/12/31 03:25:51;;;;;;;29.50;16.88;;;2.90;99.90;;;;;;5004804;28;20072;-70
2020/12/31 03:28:20;;;;;;;31.30;17.00;;;2.80;99.90;;;;;;5026028;28;21022;-70
2020/12/31 03:30:45;;;;;;;29.73;17.55;;;2.80;99.90;;;;;;5020085;28;20030;-77
2020/12/31 03:33:14;;;;;;;31.30;17.10;;;2.80;99.90;;;;;;4703908;28;10000577;-77
2020/12/31 03:35:43;;;;;;;31.35;16.60;;;2.80;99.90;;;;;;5054879;28;20477;-77
2020/12/31 03:38:11;;;;;;;28.08;16.80;;;2.80;99.90;;;;;;5022082;28;20033;-76
2020/12/31 03:40:37;;;;;;;27.70;16.63;;;2.80;99.90;;;;;;5024081;28;20022;-77
2020/12/31 03:43:06;;;;;;;28.48;16.15;;;2.80;99.90;;;;;;5023868;28;20130;-77
2020/12/31 03:45:31;;;;;;;31.30;16.80;;;2.90;99.90;;;;;;5055194;28;20168;-77
2020/12/31 03:47:57;;;;;;;26.98;16.23;;;2.90;99.90;;;;;;5057315;28;20437;-77
2020/12/31 03:50:23;;;;;;;26.38;15.68;;;2.90;99.90;;;;;;5023893;28;20037;-77
2020/12/31 03:52:52;;;;;;;25.63;16.85;;;2.90;99.90;;;;;;5022303;28;20375;-76
2020/12/31 03:55:18;;;;;;;33.65;18.45;;;2.90;99.90;;;;;;5020063;28;20036;-77
2020/12/31 03:57:43;;;;;;;25.65;15.75;;;2.80;99.90;;;;;;5023814;28;20025;-77
2020/12/31 04:00:09;;;;;;;25.42;16.25;;;2.80;99.90;;;;;;5018509;28;20336;-77
2020/12/31 04:02:37;;;;;;;30.58;18.38;;;2.80;99.90;;;;;;5056099;28;20116;-77
2020/12/31 04:05:04;;;;;;;33.60;18.25;;;2.80;99.90;;;;;;5022207;28;20095;-77
2020/12/31 04:07:32;;;;;;;36.15;19.83;;;2.80;99.90;;;;;;5022942;28;20037;-77
2020/12/31 04:10:00;;;;;;;34.10;18.10;;;2.80;99.90;;;;;;5024198;28;20029;-77
2020/12/31 04:12:28;;;;;;;29.98;16.77;;;2.80;99.90;;;;;;5024039;28;20045;-77
2020/12/31 04:14:58;;;;;;;34.45;18.52;;;2.80;99.90;;;;;;5025771;28;20118;-77
2020/12/31 04:17:26;;;;;;;29.58;17.02;;;2.70;99.90;;;;;;5027342;28;20056;-77
2020/12/31 04:19:52;;;;;;;27.50;16.75;;;2.80;99.90;;;;;;5028559;28;20602;-77
2020/12/31 04:22:22;;;;;;;30.88;17.35;;;2.80;99.90;;;;;;5026748;28;20044;-77
2020/12/31 04:24:51;;;;;;;26.80;16.02;;;2.80;99.90;;;;;;5024320;28;20617;-77
2020/12/31 04:27:19;;;;;;;31.92;18.75;;;2.90;99.90;;;;;;5057423;28;20048;-77
2020/12/31 04:29:45;;;;;;;34.15;18.60;;;2.80;99.90;;;;;;5044097;28;20045;-77
2020/12/31 04:32:13;;;;;;;31.08;16.88;;;2.80;99.90;;;;;;5027660;28;20484;-77
2020/12/31 04:34:41;;;;;;;27.88;16.20;;;2.80;99.90;;;;;;5023356;28;20033;-77
2020/12/31 04:37:09;;;;;;;28.02;16.98;;;2.80;99.90;;;;;;5026596;28;20029;-76
2020/12/31 04:39:34;;;;;;;31.73;18.20;;;2.80;99.90;;;;;;5025889;28;20025;-76
2020/12/31 04:42:00;;;;;;;28.70;17.33;;;2.80;99.90;;;;;;5027470;28;20506;-77
2020/12/31 04:44:28;;;;;;;30.20;17.30;;;2.80;99.90;;;;;;5028109;28;20617;-77
2020/12/31 04:47:02;;;;;;;28.10;17.67;;;2.80;99.90;;;;;;5043389;28;20033;-76
2020/12/31 04:49:34;;;;;;;33.58;18.70;;;2.80;99.90;;;;;;5024625;28;20398;-76
2020/12/31 04:52:03;;;;;;;28.70;16.67;;;2.90;99.90;;;;;;5059366;28;20630;-77
2020/12/31 04:54:30;;;;;;;33.42;19.88;;;2.80;99.90;;;;;;5009579;28;20072;-77
2020/12/31 04:56:56;;;;;;;32.95;18.25;;;2.80;99.90;;;;;;5042128;28;20053;-76
2020/12/31 04:59:24;;;;;;;33.65;18.60;;;2.80;99.90;;;;;;5058803;28;20091;-76
2020/12/31 05:01:50;;;;;;;28.10;17.80;;;2.80;99.90;;;;;;5025529;28;20018;-76
2020/12/31 05:04:18;;;;;;;32.70;18.75;;;2.80;99.90;;;;;;5025121;28;20029;-76
2020/12/31 05:06:46;;;;;;;26.00;15.50;;;2.80;99.90;;;;;;5023824;28;20049;-76
2020/12/31 05:09:13;;;;;;;28.23;15.93;;;2.80;99.90;;;;;;5058080;28;20039;-76
2020/12/31 05:11:51;;;;;;;33.78;17.85;;;2.80;99.90;;;;;;5058398;28;20036;-76
2020/12/31 05:14:34;;;;;;;31.77;17.38;;;2.80;99.90;;;;;;5027529;28;20046;-76
2020/12/31 05:17:14;;;;;;;30.80;17.67;;;2.80;99.90;;;;;;5027128;28;20045;-76
2020/12/31 05:19:40;;;;;;;38.15;18.92;;;2.80;99.90;;;;;;5057276;28;20048;-76
2020/12/31 05:22:21;;;;;;;34.15;17.75;;;2.70;99.90;;;;;;5041896;28;20021;-77
2020/12/31 05:24:52;;;;;;;31.90;17.42;;;2.70;99.90;;;;;;5037204;28;20378;-76
2020/12/31 05:27:28;;;;;;;36.42;19.33;;;2.70;99.90;;;;;;5026387;28;20117;-76
2020/12/31 05:30:00;;;;;;;29.90;17.67;;;2.70;99.90;;;;;;5024632;28;20034;-76
2020/12/31 05:32:29;;;;;;;31.63;17.25;;;2.70;99.90;;;;;;5005494;28;20041;-77
2020/12/31 05:34:58;;;;;;;31.27;17.83;;;2.60;99.90;;;;;;5025892;28;20040;-76
2020/12/31 05:37:27;;;;;;;31.70;17.63;;;2.60;99.90;;;;;;5041075;28;20032;-76
2020/12/31 05:40:05;;;;;;;32.40;17.92;;;2.60;99.90;;;;;;5054415;28;20025;-76
2020/12/31 05:42:31;;;;;;;32.83;18.33;;;2.60;99.90;;;;;;5024357;28;20050;-76
2020/12/31 05:45:16;;;;;;;30.92;17.05;;;2.60;99.90;;;;;;5026133;28;20068;-76
2020/12/31 05:47:46;;;;;;;29.10;16.27;;;2.60;99.90;;;;;;5038973;28;20029;-76
2020/12/31 05:50:30;;;;;;;28.17;16.20;;;2.60;99.90;;;;;;5023863;28;20029;-76
2020/12/31 05:53:00;;;;;;;28.25;16.33;;;2.60;99.90;;;;;;5025822;28;20520;-76
2020/12/31 05:55:29;;;;;;;26.58;15.55;;;2.60;99.90;;;;;;5023332;28;20061;-76
2020/12/31 05:57:55;;;;;;;29.13;16.52;;;2.70;99.90;;;;;;5023976;28;20018;-76
2020/12/31 06:00:25;;;;;;;25.90;15.77;;;2.70;99.90;;;;;;5025322;28;20041;-76
2020/12/31 06:02:58;;;;;;;27.80;16.80;;;2.70;99.90;;;;;;5026684;28;20452;-76
2020/12/31 06:05:28;;;;;;;;;;;2.80;99.90;;;;;;5059398;28;20037;-76
2020/12/31 06:07:58;;;;;;;27.83;17.08;;;2.80;99.90;;;;;;5058108;28;19948;-76
2020/12/31 06:10:25;;;;;;;27.80;16.60;;;2.70;99.90;;;;;;5056122;28;20038;-76
2020/12/31 06:12:52;;;;;;;30.52;17.52;;;2.80;99.90;;;;;;5024932;28;20562;-77
2020/12/31 06:15:20;;;;;;;31.77;18.38;;;2.80;99.90;;;;;;5020676;28;20120;-76
2020/12/31 06:17:46;;;;;;;31.85;18.20;;;2.70;99.90;;;;;;5041866;28;20051;-76
2020/12/31 06:20:21;;;;;;;32.25;18.60;;;2.70;99.90;;;;;;5057079;28;20026;-76
2020/12/31 06:22:55;;;;;;;27.77;16.48;;;2.70;99.90;;;;;;5041908;28;20602;-76
2020/12/31 06:25:38;;;;;;;26.33;16.27;;;2.70;99.90;;;;;;5024698;28;20119;-76
2020/12/31 06:28:23;;;;;;;29.13;17.10;;;2.70;99.90;;;;;;5055417;28;20134;-76
2020/12/31 06:30:50;;;;;;;30.15;17.92;;;2.70;99.90;;;;;;5026018;28;20029;-76
2020/12/31 06:33:36;;;;;;;30.67;16.70;;;2.70;99.90;;;;;;5024996;28;20140;-76
2020/12/31 06:36:05;;;;;;;23.58;14.65;;;2.70;99.90;;;;;;5019908;28;20076;-75
2020/12/31 06:38:42;;;;;;;28.98;17.63;;;2.70;99.90;;;;;;5056433;28;20021;-75
2020/12/31 06:41:49;;;;;;;26.83;15.95;;;2.70;99.90;;;;;;5025727;28;20037;-76
2020/12/31 06:44:17;;;;;;;30.65;17.75;;;2.70;99.90;;;;;;4988782;28;20027;-76
2020/12/31 06:46:44;;;;;;;30.55;18.27;;;2.70;99.90;;;;;;5002184;28;20036;-76
2020/12/31 06:49:10;;;;;;;30.73;18.38;;;2.70;99.90;;;;;;4987011;28;20432;-77
2020/12/31 06:51:35;;;;;;;33.08;18.95;;;2.70;99.90;;;;;;4988021;28;20030;-76
2020/12/31 06:54:01;;;;;;;27.10;15.88;;;2.70;99.90;;;;;;4997845;28;20034;-76
2020/12/31 06:56:49;;;;;;;27.02;16.27;;;2.70;99.90;;;;;;4987759;28;20136;-76
2020/12/31 06:59:43;;;;;;;26.30;15.70;;;2.80;99.90;;;;;;5000386;28;20543;-76
2020/12/31 07:02:09;;;;;;;29.58;17.77;;;2.80;99.90;;;;;;4982848;28;20069;-76
2020/12/31 07:04:40;;;;;;;26.05;16.30;;;2.70;99.90;;;;;;4999636;28;20109;-76
2020/12/31 07:07:20;;;;;;;26.23;15.82;;;2.80;99.90;;;;;;4983890;28;20026;-76
2020/12/31 07:09:56;;;;;;;35.28;19.83;;;2.70;99.90;;;;;;5000728;28;20029;-76
2020/12/31 07:12:32;;;;;;;32.35;19.50;;;2.70;99.90;;;;;;4986001;28;20125;-76
2020/12/31 07:15:00;;;;;;;27.42;16.35;;;2.60;99.90;;;;;;5012145;28;20042;-76
2020/12/31 07:17:34;;;;;;;30.17;18.83;;;2.60;99.90;;;;;;5023987;28;20049;-76
2020/12/31 07:20:03;;;;;;;30.02;18.27;;;2.70;99.90;;;;;;5023604;28;20056;-76
2020/12/31 07:22:29;;;;;;;30.38;17.52;;;2.60;99.90;;;;;;5025438;28;20029;-75
2020/12/31 07:25:09;;;;;;;25.70;16.25;;;2.70;99.90;;;;;;5021099;28;20379;-76
2020/12/31 07:27:38;;;;;;;39.67;20.17;;;2.70;99.90;;;;;;5023067;28;20022;-76
2020/12/31 07:30:15;;;;;;;37.05;19.20;;;2.70;99.90;;;;;;5024385;28;20109;-76
2020/12/31 07:32:53;;;;;;;40.80;19.67;;;2.60;99.90;;;;;;5038125;28;20072;-75
2020/12/31 07:35:20;;;;;;;26.52;15.48;;;2.60;99.90;;;;;;5023774;28;20036;-76
2020/12/31 07:37:52;;;;;;;32.33;19.45;;;2.60;99.90;;;;;;5055530;28;20018;-75
2020/12/31 07:40:58;;;;;;;36.58;20.13;;;2.60;99.90;;;;;;5038446;28;20017;-76
2020/12/31 07:43:28;;;;;;;33.38;18.40;;;2.60;99.90;;;;;;5025273;28;20026;-75
2020/12/31 07:45:57;;;;;;;36.20;19.00;;;2.60;99.90;;;;;;5054477;28;20025;-76
2020/12/31 07:48:26;;;;;;;32.08;18.20;;;2.50;99.90;;;;;;5058259;28;20451;-75
2020/12/31 07:50:55;;;;;;;31.02;16.38;;;2.50;99.90;;;;;;5008105;28;20044;-75
2020/12/31 07:53:21;;;;;;;31.13;17.75;;;2.50;99.90;;;;;;5027050;28;20026;-75
2020/12/31 07:55:48;;;;;;;29.80;16.83;;;2.40;99.90;;;;;;5059484;28;20040;-75
2020/12/31 07:58:16;;;;;;;32.15;17.33;;;2.40;99.90;;;;;;5027530;28;20132;-75
2020/12/31 08:00:43;;;;;;;33.03;17.38;;;2.40;99.90;;;;;;5026524;28;20506;-75
2020/12/31 08:03:09;;;;;;;33.60;17.65;;;2.40;99.90;;;;;;5026414;28;20033;-75
2020/12/31 08:05:35;;;;;;;27.10;16.48;;;2.40;99.90;;;;;;5027005;28;20594;-75
2020/12/31 08:08:01;;;;;;;33.00;16.58;;;2.40;99.90;;;;;;5026173;28;20041;-75
2020/12/31 08:10:32;;;;;;;25.05;14.65;;;2.40;99.90;;;;;;5026513;28;20029;-75
2020/12/31 08:13:07;;;;;;;21.25;12.18;;;2.30;99.90;;;;;;5043310;28;20044;-75
2020/12/31 08:15:32;;;;;;;35.13;16.50;;;2.40;99.90;;;;;;5007232;28;20150;-75
2020/12/31 08:18:02;;;;;;;24.45;14.23;;;2.30;99.90;;;;;;5026726;28;20045;-75
2020/12/31 08:20:36;;;;;;;28.67;15.80;;;2.30;99.90;;;;;;5058248;28;20021;-75
2020/12/31 08:23:03;;;;;;;27.75;15.02;;;2.30;99.90;;;;;;5026548;28;20199;-75
2020/12/31 08:25:41;;;;;;;23.70;13.77;;;2.40;99.90;;;;;;5042771;28;20030;-75
2020/12/31 08:28:09;;;;;;;24.98;14.65;;;2.30;99.90;;;;;;5023215;28;20048;-75
2020/12/31 08:30:36;;;;;;;28.27;15.82;;;2.30;99.90;;;;;;5027758;28;20044;-75
2020/12/31 08:33:02;;;;;;;26.00;13.80;;;2.40;99.90;;;;;;5026057;28;20037;-75
2020/12/31 08:35:30;;;;;;;26.73;14.23;;;2.30;99.90;;;;;;5027015;28;20029;-75
2020/12/31 08:38:02;;;;;;;25.13;13.43;;;2.30;99.90;;;;;;5026521;28;20030;-75
2020/12/31 08:40:31;;;;;;;23.58;12.60;;;2.30;99.90;;;;;;5024527;28;20022;-75
2020/12/31 08:42:57;;;;;;;25.67;13.07;;;2.30;99.90;;;;;;5027655;28;20397;-75
2020/12/31 08:45:27;;;;;;;24.40;13.27;;;2.30;99.90;;;;;;5058546;28;20029;-75
2020/12/31 08:47:55;;;;;;;26.20;13.68;;;2.30;99.90;;;;;;5015211;28;20427;-75
2020/12/31 08:50:20;;;;;;;25.55;14.05;;;2.30;99.90;;;;;;5024799;28;20029;-75
2020/12/31 08:52:48;;;;;;;21.52;12.18;;;2.20;99.90;;;;;;5025959;28;20033;-75
2020/12/31 08:55:14;;;;;;;25.73;13.20;;;2.20;99.90;;;;;;5023643;28;20036;-75
2020/12/31 08:57:39;;;;;;;30.35;14.00;;;2.20;99.90;;;;;;5027125;28;20100;-75
2020/12/31 09:00:10;;;;;;;24.27;12.63;;;2.20;99.90;;;;;;5026505;28;20025;-75
2020/12/31 09:02:38;;;;;;;30.42;14.23;;;2.20;99.90;;;;;;5055585;28;20036;-75
2020/12/31 09:05:14;;;;;;;22.35;12.68;;;2.30;99.90;;;;;;5027862;28;20025;-75
2020/12/31 09:07:40;;;;;;;26.20;13.00;;;2.30;99.90;;;;;;5039823;28;20022;-75
2020/12/31 09:10:16;;;;;;;25.88;12.75;;;2.30;99.90;;;;;;5027549;28;20035;-75
2020/12/31 09:12:46;;;;;;;29.17;13.82;;;2.30;99.90;;;;;;5057516;28;20036;-75
2020/12/31 09:15:20;;;;;;;28.17;13.90;;;2.30;99.90;;;;;;5057998;28;20029;-75
2020/12/31 09:17:48;;;;;;;30.02;14.73;;;2.30;99.90;;;;;;5007788;28;20356;-75
2020/12/31 09:20:21;;;;;;;23.70;13.38;;;2.20;99.90;;;;;;5025223;28;20064;-74
2020/12/31 09:22:51;;;;;;;29.02;14.40;;;2.20;99.90;;;;;;5025895;28;20490;-74
2020/12/31 09:25:17;;;;;;;22.95;12.57;;;2.30;99.90;;;;;;5026060;28;20030;-75
2020/12/31 09:27:45;;;;;;;23.77;12.82;;;2.20;99.90;;;;;;5038160;28;20025;-75
2020/12/31 09:30:12;;;;;;;21.83;11.88;;;2.30;99.90;;;;;;5025542;28;20112;-75
2020/12/31 09:32:38;;;;;;;25.63;12.52;;;2.30;99.90;;;;;;5055444;28;20366;-75
2020/12/31 09:35:05;;;;;;;25.33;12.80;;;2.30;99.90;;;;;;5024042;28;20033;-75
2020/12/31 09:37:45;;;;;;;19.63;11.10;;;2.40;99.90;;;;;;5027420;28;20024;-75
2020/12/31 09:40:13;;;;;;;23.05;11.30;;;2.40;99.90;;;;;;5026168;28;20120;-75
2020/12/31 09:42:39;;;;;;;21.52;11.52;;;2.40;99.90;;;;;;5027216;28;20029;-75
2020/12/31 09:45:04;;;;;;;23.42;12.02;;;2.50;99.90;;;;;;5025766;28;20025;-75
2020/12/31 09:47:35;;;;;;;16.83;10.52;;;2.50;99.90;;;;;;5025260;28;20037;-75
2020/12/31 09:50:05;;;;;;;22.27;11.20;;;2.50;99.90;;;;;;5042089;28;20045;-75
2020/12/31 09:52:34;;;;;;;18.25;10.30;;;2.50;99.90;;;;;;5025849;28;20040;-75
2020/12/31 09:54:59;;;;;;;17.25;10.02;;;2.60;99.90;;;;;;5057314;28;20052;-75
2020/12/31 09:57:25;;;;;;;15.63;9.90;;;2.50;99.90;;;;;;5025329;28;20041;-75
2020/12/31 09:59:53;;;;;;;17.10;9.82;;;2.60;99.90;;;;;;5025140;28;20108;-75
2020/12/31 10:02:23;;;;;;;15.85;9.10;;;2.50;99.90;;;;;;5057281;28;20057;-75
2020/12/31 10:04:49;;;;;;;17.52;10.20;;;2.60;99.90;;;;;;5025138;28;20095;-75
2020/12/31 10:07:18;;;;;;;17.80;9.43;;;2.50;99.90;;;;;;5057805;28;20384;-75
2020/12/31 10:09:46;;;;;;;20.17;10.13;;;2.50;99.90;;;;;;5024034;28;20080;-76
2020/12/31 10:12:17;;;;;;;20.63;10.98;;;2.50;99.90;;;;;;5025356;28;20018;-75
2020/12/31 10:14:43;;;;;;;17.50;9.65;;;2.40;99.90;;;;;;5041357;28;20044;-75
2020/12/31 10:17:09;;;;;;;17.30;9.73;;;2.40;99.90;;;;;;5056452;28;20042;-75
2020/12/31 10:19:37;;;;;;;17.50;9.73;;;2.40;99.90;;;;;;5058014;28;20028;-75
2020/12/31 10:22:05;;;;;;;22.63;10.50;;;2.40;99.90;;;;;;5057625;28;20048;-75
2020/12/31 10:24:32;;;;;;;20.02;9.63;;;2.40;99.90;;;;;;5020117;28;20049;-75
2020/12/31 10:27:00;;;;;;;16.13;9.10;;;2.30;99.90;;;;;;5026256;28;20083;-75
2020/12/31 10:29:28;;;;;;;14.35;8.68;;;2.40;99.90;;;;;;5028051;28;20057;-75
2020/12/31 10:31:54;;;;;;;18.75;8.35;;;2.40;99.90;;;;;;5027043;28;20035;-75
2020/12/31 10:34:20;;;;;;;14.68;8.38;;;2.40;99.90;;;;;;5039549;28;20050;-75
2020/12/31 10:36:52;;;;;;;13.60;7.63;;;2.40;99.90;;;;;;5037150;28;20580;-75
2020/12/31 10:39:23;;;;;;;12.65;7.20;;;2.40;99.90;;;;;;5026573;28;20028;-75
2020/12/31 10:41:49;;;;;;;11.57;7.05;;;2.30;99.90;;;;;;5024109;28;20079;-76
2020/12/31 10:44:20;;;;;;;13.57;7.82;;;2.30;99.90;;;;;;5023235;28;20070;-75
2020/12/31 10:46:48;;;;;;;11.18;6.63;;;2.30;99.90;;;;;;5023363;28;20082;-75
2020/12/31 10:49:14;;;;;;;12.13;7.30;;;2.20;99.90;;;;;;5041432;28;20056;-75
2020/12/31 10:51:44;;;;;;;16.10;8.27;;;2.20;99.90;;;;;;5059027;28;20037;-76
2020/12/31 10:54:12;;;;;;;16.63;8.57;;;2.20;99.90;;;;;;5024474;28;20053;-76
2020/12/31 10:56:38;;;;;;;14.85;8.13;;;2.20;99.90;;;;;;5024801;28;20025;-75
2020/12/31 10:59:09;;;;;;;14.82;9.27;;;2.20;99.90;;;;;;5026602;28;20503;-75
2020/12/31 11:01:34;;;;;;;15.85;8.23;;;2.20;99.90;;;;;;5057319;28;20161;-75
2020/12/31 11:04:00;;;;;;;13.85;8.55;;;2.20;99.90;;;;;;5024428;28;20484;-76
2020/12/31 11:06:30;;;;;;;13.70;8.07;;;2.20;99.90;;;;;;5025500;28;20410;-76
2020/12/31 11:08:58;;;;;;;13.43;8.70;;;2.30;99.90;;;;;;5036914;28;20697;-75
2020/12/31 11:11:33;;;;;;;18.08;9.90;;;2.20;99.90;;;;;;5023157;28;20037;-75
2020/12/31 11:14:01;;;;;;;13.38;8.77;;;2.30;99.90;;;;;;5024337;28;20455;-75
2020/12/31 11:16:27;;;;;;;16.17;9.95;;;2.30;99.90;;;;;;5055415;28;20045;-75
2020/12/31 11:18:55;;;;;;;15.57;9.38;;;2.20;99.90;;;;;;5025891;28;20029;-75
2020/12/31 11:21:22;;;;;;;19.15;10.93;;;2.20;99.90;;;;;;5015947;28;20040;-75
2020/12/31 11:23:48;;;;;;;16.25;10.20;;;2.20;99.90;;;;;;5022051;28;20059;-75
2020/12/31 11:26:20;;;;;;;14.73;9.32;;;2.20;99.90;;;;;;5057480;28;20065;-75
2020/12/31 11:28:50;;;;;;;13.90;8.07;;;2.20;99.90;;;;;;5038540;28;20561;-76
2020/12/31 11:31:24;;;;;;;16.38;9.57;;;2.20;99.90;;;;;;4330617;28;10000351;-70
2020/12/31 11:33:50;;;;;;;15.68;8.90;;;2.20;99.90;;;;;;5037972;28;20533;-70
2020/12/31 11:36:15;;;;;;;14.32;8.60;;;2.20;99.90;;;;;;5021614;28;20029;-69
2020/12/31 11:38:43;;;;;;;14.40;8.98;;;2.20;99.90;;;;;;5021658;28;20758;-70
2020/12/31 11:41:11;;;;;;;14.00;8.57;;;2.20;99.90;;;;;;5022943;28;20036;-70
2020/12/31 11:43:39;;;;;;;13.25;8.20;;;2.20;99.90;;;;;;5038016;28;20029;-70
2020/12/31 11:46:08;;;;;;;12.25;8.07;;;2.20;99.90;;;;;;5036242;28;20033;-70
2020/12/31 11:48:33;;;;;;;13.77;8.93;;;2.30;99.90;;;;;;5056125;28;20028;-70
2020/12/31 11:51:00;;;;;;;14.05;8.45;;;2.30;99.90;;;;;;5056445;28;20029;-69
2020/12/31 11:53:26;;;;;;;17.67;9.40;;;2.30;99.90;;;;;;5024565;28;20111;-69
2020/12/31 11:55:52;;;;;;;15.13;9.25;;;2.20;99.90;;;;;;5023764;28;20037;-71
2020/12/31 11:58:18;;;;;;;16.92;10.07;;;2.20;99.90;;;;;;5042484;28;20037;-70
2020/12/31 12:00:43;;;;;;;14.95;8.65;;;2.20;99.90;;;;;;5057219;28;20079;-70
2020/12/31 12:03:09;;;;;;;16.73;9.68;;;2.20;99.90;;;;;;5024300;28;20033;-70
2020/12/31 12:05:37;;;;;;;15.65;9.52;;;2.20;99.90;;;;;;5043105;28;20064;-70
2020/12/31 12:08:04;;;;;;;14.50;9.45;;;2.20;99.90;;;;;;5052185;28;20156;-70
2020/12/31 12:10:30;;;;;;;17.73;10.93;;;2.20;99.90;;;;;;5033937;28;20109;-70
2020/12/31 12:12:55;;;;;;;22.88;10.70;;;2.20;99.90;;;;;;5017480;28;20175;-70
2020/12/31 12:15:21;;;;;;;20.17;10.52;;;2.10;99.90;;;;;;5034854;28;20028;-71
2020/12/31 12:17:49;;;;;;;18.42;10.38;;;2.10;99.90;;;;;;5022041;28;20049;-70
2020/12/31 12:20:15;;;;;;;17.30;10.50;;;2.10;99.90;;;;;;5023342;28;20024;-71
2020/12/31 12:22:41;;;;;;;13.90;8.50;;;2.10;99.90;;;;;;5054252;28;20358;-70
2020/12/31 12:25:07;;;;;;;14.60;9.25;;;2.10;99.90;;;;;;5039115;28;20037;-70
2020/12/31 12:27:34;;;;;;;12.90;8.57;;;2.10;99.90;;;;;;5039834;28;20057;-70
2020/12/31 12:29:59;;;;;;;15.35;9.57;;;2.20;99.90;;;;;;5038267;28;20029;-70
2020/12/31 12:32:25;;;;;;;17.50;9.63;;;2.20;99.90;;;;;;5026063;28;20608;-70
2020/12/31 12:34:50;;;;;;;17.67;9.77;;;2.20;99.90;;;;;;5028557;28;20107;-70
2020/12/31 12:37:16;;;;;;;15.30;9.25;;;2.20;99.90;;;;;;5027506;28;20033;-70
2020/12/31 12:39:44;;;;;;;12.65;7.97;;;2.10;99.90;;;;;;5028216;28;20030;-70
2020/12/31 12:42:10;;;;;;;17.02;9.15;;;2.20;99.90;;;;;;5029404;28;20188;-70
2020/12/31 12:44:38;;;;;;;13.45;8.13;;;2.10;99.90;;;;;;5028993;28;20068;-71
2020/12/31 12:47:03;;;;;;;13.57;8.35;;;2.20;99.90;;;;;;5027845;28;20025;-71